createdAt,value
2018-10-05T00:02:24.345Z,100976.25
2018-10-05T00:04:52.076Z,100972.27
2018-10-05T00:07:19.817Z,100973.38
2018-10-05T00:09:47.542Z,100973.03
2018-10-05T00:12:15.254Z,100975.50
2018-10-05T00:14:42.982Z,100979.91
2018-10-05T00:17:11.044Z,100979.62
2018-10-05T00:19:38.756Z,100978.75
2018-10-05T00:22:06.637Z,100983.48
2018-10-05T00:24:34.373Z,100984.76
2018-10-05T00:27:02.088Z,100983.64
2018-10-05T00:29:29.802Z,100979.04
2018-10-05T00:31:57.508Z,100977.85
2018-10-05T00:34:25.213Z,100977.62
2018-10-05T00:36:52.925Z,100975.50
2018-10-05T00:39:20.648Z,100968.23
2018-10-05T00:41:48.353Z,100968.14
2018-10-05T00:44:16.067Z,100976.98
2018-10-05T00:46:43.868Z,100980.03
2018-10-05T00:49:11.591Z,100981.83
2018-10-05T00:51:39.308Z,100986.11
2018-10-05T00:54:07.041Z,100979.10
2018-10-05T00:56:34.763Z,100987.95
2018-10-05T00:59:02.499Z,100982.70
2018-10-05T01:01:30.236Z,100979.61
2018-10-05T01:03:57.965Z,100983.80
2018-10-05T01:06:25.681Z,100984.38
2018-10-05T01:08:53.385Z,100985.27
2018-10-05T01:11:21.159Z,100984.85
2018-10-05T01:13:48.855Z,100977.78
2018-10-05T01:16:16.573Z,100985.03
2018-10-05T01:18:44.277Z,100979.28
2018-10-05T01:21:11.997Z,100972.85
2018-10-05T01:23:39.726Z,100975.61
2018-10-05T01:26:07.429Z,100974.27
2018-10-05T01:28:35.145Z,100972.78
2018-10-05T01:31:02.878Z,100978.95
2018-10-05T01:33:30.600Z,100975.35
2018-10-05T01:35:58.328Z,100975.48
2018-10-05T01:38:26.051Z,100976.41
2018-10-05T01:40:53.772Z,100974.51
2018-10-05T01:43:21.550Z,100973.77
2018-10-05T01:45:49.264Z,100979.55
2018-10-05T01:48:16.977Z,100978.89
2018-10-05T01:50:44.682Z,100972.45
2018-10-05T01:53:12.406Z,100981.92
2018-10-05T01:55:40.124Z,100983.34
2018-10-05T01:58:07.851Z,100988.62
2018-10-05T02:00:35.564Z,100984.72
2018-10-05T02:03:03.262Z,100991.98
2018-10-05T02:05:31.389Z,100992.63
2018-10-05T02:07:59.089Z,100983.33
2018-10-05T02:10:26.793Z,100993.35
2018-10-05T02:12:54.498Z,100994.25
2018-10-05T02:15:22.189Z,100989.94
2018-10-05T02:17:49.907Z,100989.02
2018-10-05T02:20:17.644Z,100982.90
2018-10-05T02:22:45.372Z,100995.05
2018-10-05T02:25:13.080Z,100985.53
2018-10-05T02:27:40.895Z,100980.21
2018-10-05T02:30:08.552Z,100985.36
2018-10-05T02:32:36.292Z,100986.50
2018-10-05T02:35:04.163Z,100990.44
2018-10-05T02:37:31.869Z,100992.37
2018-10-05T02:39:59.557Z,100992.27
2018-10-05T02:42:27.265Z,100991.95
2018-10-05T02:44:55.004Z,100999.94
2018-10-05T02:47:22.729Z,101000.44
2018-10-05T02:49:50.502Z,101007.55
2018-10-05T02:52:18.206Z,101007.49
2018-10-05T02:54:45.913Z,100999.49
2018-10-05T02:57:13.635Z,101008.77
2018-10-05T02:59:41.369Z,101011.50
2018-10-05T03:02:20.257Z,101008.59
2018-10-05T03:04:47.983Z,101015.50
2018-10-05T03:07:15.678Z,101016.24
2018-10-05T03:09:43.378Z,101020.41
2018-10-05T03:12:11.092Z,101024.27
2018-10-05T03:14:38.820Z,101029.67
2018-10-05T03:17:06.544Z,101031.44
2018-10-05T03:19:34.312Z,101027.28
2018-10-05T03:22:02.037Z,101040.66
2018-10-05T03:24:29.750Z,101040.11
2018-10-05T03:26:57.454Z,101044.75
2018-10-05T03:29:25.259Z,101043.16
2018-10-05T03:31:53.004Z,101034.39
2018-10-05T03:34:20.732Z,101033.22
2018-10-05T03:36:48.438Z,101033.00
2018-10-05T03:39:16.142Z,101041.78
2018-10-05T03:41:43.853Z,101036.05
2018-10-05T03:44:11.575Z,101036.34
2018-10-05T03:46:39.304Z,101034.73
2018-10-05T03:49:07.015Z,101033.71
2018-10-05T03:51:34.717Z,101040.56
2018-10-05T03:54:02.526Z,101041.11
2018-10-05T03:56:30.239Z,101038.10
2018-10-05T03:58:58.007Z,101045.73
2018-10-05T04:01:25.721Z,101043.27
2018-10-05T04:03:53.418Z,101050.11
2018-10-05T04:06:21.148Z,101044.98
2018-10-05T04:08:48.857Z,101046.28
2018-10-05T04:11:16.877Z,101049.74
2018-10-05T04:13:44.582Z,101056.06
2018-10-05T04:16:12.297Z,101052.50
2018-10-05T04:18:40.020Z,101052.94
2018-10-05T04:21:07.767Z,101049.44
2018-10-05T04:23:35.478Z,101052.03
2018-10-05T04:26:03.197Z,101053.08
2018-10-05T04:28:30.988Z,101056.21
2018-10-05T04:30:58.854Z,101054.90
2018-10-05T04:33:26.560Z,101051.95
2018-10-05T04:35:54.292Z,101045.62
2018-10-05T04:38:22.016Z,101043.98
2018-10-05T04:40:49.727Z,101046.13
2018-10-05T04:43:17.440Z,101051.81
2018-10-05T04:45:45.176Z,101059.08
2018-10-05T04:48:12.876Z,101064.52
2018-10-05T04:50:40.597Z,101061.08
2018-10-05T04:53:08.308Z,101065.25
2018-10-05T04:55:36.101Z,101068.47
2018-10-05T04:58:03.918Z,101070.30
2018-10-05T05:00:31.615Z,101079.07
2018-10-05T05:02:59.412Z,101077.63
2018-10-05T05:05:27.208Z,101087.80
2018-10-05T05:07:54.964Z,101077.42
2018-10-05T05:10:22.720Z,101075.58
2018-10-05T05:12:50.443Z,101080.34
2018-10-05T05:15:18.211Z,101083.36
2018-10-05T05:17:45.956Z,101083.67
2018-10-05T05:20:13.682Z,101087.89
2018-10-05T05:22:41.451Z,101088.08
2018-10-05T05:25:09.166Z,101090.48
2018-10-05T05:27:36.993Z,101088.96
2018-10-05T05:30:04.965Z,101081.33
2018-10-05T05:32:32.676Z,101085.94
2018-10-05T05:35:00.400Z,101085.55
2018-10-05T05:37:28.117Z,101083.73
2018-10-05T05:39:55.813Z,101085.80
2018-10-05T05:42:23.555Z,101090.11
2018-10-05T05:44:51.296Z,101093.98
2018-10-05T05:47:19.053Z,101099.28
2018-10-05T05:49:46.770Z,101090.50
2018-10-05T05:52:14.513Z,101094.94
2018-10-05T05:54:42.263Z,101105.55
2018-10-05T05:57:09.996Z,101108.30
2018-10-05T05:59:37.738Z,101111.54
2018-10-05T06:02:05.526Z,101116.92
2018-10-05T06:04:33.242Z,101114.12
2018-10-05T06:07:00.991Z,101112.44
2018-10-05T06:09:28.712Z,101115.53
2018-10-05T06:11:56.432Z,101116.92
2018-10-05T06:14:24.160Z,101122.73
2018-10-05T06:16:51.904Z,101121.25
2018-10-05T06:19:19.669Z,101119.89
2018-10-05T06:21:47.570Z,101121.36
2018-10-05T06:24:15.195Z,101130.62
2018-10-05T06:26:42.919Z,101127.91
2018-10-05T06:29:10.643Z,101127.34
2018-10-05T06:31:38.370Z,101134.55
2018-10-05T06:34:06.472Z,101126.94
2018-10-05T06:36:34.212Z,101138.48
2018-10-05T06:39:02.105Z,101133.44
2018-10-05T06:41:29.856Z,101131.24
2018-10-05T06:43:57.578Z,101133.86
2018-10-05T06:46:25.310Z,101144.50
2018-10-05T06:48:53.027Z,101142.55
2018-10-05T06:51:20.765Z,101141.99
2018-10-05T06:53:48.492Z,101139.36
2018-10-05T06:56:16.230Z,101143.97
2018-10-05T06:58:44.055Z,101154.70
2018-10-05T07:01:11.774Z,101153.53
2018-10-05T07:03:39.532Z,101150.20
2018-10-05T07:06:07.282Z,101154.09
2018-10-05T07:08:35.016Z,101155.87
2018-10-05T07:11:02.919Z,101160.70
2018-10-05T07:13:30.675Z,101158.61
2018-10-05T07:15:58.480Z,101161.56
2018-10-05T07:18:26.191Z,101161.81
2018-10-05T07:20:53.920Z,101161.88
2018-10-05T07:23:21.645Z,101154.40
2018-10-05T07:25:49.360Z,101158.18
2018-10-05T07:28:17.154Z,101158.31
2018-10-05T07:30:44.839Z,101160.01
2018-10-05T07:33:12.568Z,101159.14
2018-10-05T07:35:40.286Z,101164.19
2018-10-05T07:38:07.997Z,101161.12
2018-10-05T07:40:35.743Z,101152.42
2018-10-05T07:43:03.493Z,101150.66
2018-10-05T07:45:31.229Z,101154.28
2018-10-05T07:47:58.949Z,101157.74
2018-10-05T07:50:26.706Z,101157.12
2018-10-05T07:52:54.418Z,101158.13
2018-10-05T07:55:22.187Z,101154.67
2018-10-05T07:57:49.959Z,101154.12
2018-10-05T08:00:17.723Z,101154.37
2018-10-05T08:02:45.460Z,101156.74
2018-10-05T08:05:13.203Z,101162.91
2018-10-05T08:07:40.928Z,101152.36
2018-10-05T08:10:08.756Z,101151.35
2018-10-05T08:12:36.505Z,101144.95
2018-10-05T08:15:05.018Z,101145.53
2018-10-05T08:17:32.811Z,101146.73
2018-10-05T08:20:00.585Z,101143.38
2018-10-05T08:22:28.312Z,101140.34
2018-10-05T08:24:56.052Z,101138.16
2018-10-05T08:27:23.785Z,101134.54
2018-10-05T08:29:51.505Z,101134.16
2018-10-05T08:32:19.269Z,101129.30
2018-10-05T08:34:47.050Z,101132.03
2018-10-05T08:37:14.817Z,101129.50
2018-10-05T08:39:42.616Z,101129.99
2018-10-05T08:42:10.317Z,101126.41
2018-10-05T08:44:38.042Z,101123.02
2018-10-05T08:47:05.788Z,101123.78
2018-10-05T08:49:33.515Z,101120.42
2018-10-05T08:52:01.381Z,101119.61
2018-10-05T08:54:28.978Z,101116.95
2018-10-05T08:56:56.710Z,101116.00
2018-10-05T08:59:27.701Z,101114.38
2018-10-05T09:01:55.426Z,101113.34
2018-10-05T09:04:23.149Z,101107.73
2018-10-05T09:06:50.903Z,101106.17
2018-10-05T09:09:18.664Z,101106.25
2018-10-05T09:11:47.276Z,101104.37
2018-10-05T09:14:15.048Z,101095.80
2018-10-05T09:16:42.804Z,101100.56
2018-10-05T09:19:10.528Z,101098.80
2018-10-05T09:21:38.250Z,101095.16
2018-10-05T09:24:06.071Z,101084.83
2018-10-05T09:26:33.816Z,101089.88
2018-10-05T09:29:01.542Z,101084.69
2018-10-05T09:31:29.275Z,101083.46
2018-10-05T09:33:57.050Z,101076.56
2018-10-05T09:36:24.826Z,101076.01
2018-10-05T09:38:52.591Z,101085.08
2018-10-05T09:41:20.351Z,101079.97
2018-10-05T09:43:48.088Z,101074.95
2018-10-05T09:46:15.989Z,101073.78
2018-10-05T09:48:43.706Z,101076.91
2018-10-05T09:51:11.457Z,101068.52
2018-10-05T09:53:39.191Z,101065.10
2018-10-05T09:56:06.948Z,101069.67
2018-10-05T09:58:34.669Z,101062.37
2018-10-05T10:01:07.803Z,101059.19
2018-10-05T10:03:36.526Z,101050.81
2018-10-05T10:06:05.161Z,101045.39
2018-10-05T10:08:32.917Z,101043.59
2018-10-05T10:11:00.728Z,101028.73
2018-10-05T10:13:28.534Z,101035.59
2018-10-05T10:15:56.274Z,101027.98
2018-10-05T10:18:24.010Z,101036.84
2018-10-05T10:20:51.734Z,101032.25
2018-10-05T10:23:19.484Z,101030.39
2018-10-05T10:25:47.255Z,101023.20
2018-10-05T10:28:15.046Z,101025.27
2018-10-05T10:30:42.806Z,101028.77
2018-10-05T10:33:10.529Z,101023.13
2018-10-05T10:35:38.258Z,101019.19
2018-10-05T10:38:06.061Z,101017.67
2018-10-05T10:40:33.757Z,101016.22
2018-10-05T10:43:01.534Z,101010.10
2018-10-05T10:45:29.274Z,101003.15
2018-10-05T10:47:57.010Z,100997.44
2018-10-05T10:50:24.733Z,100994.56
2018-10-05T10:52:52.543Z,100994.62
2018-10-05T10:55:20.287Z,100996.16
2018-10-05T10:57:47.997Z,100985.44
2018-10-05T11:00:15.762Z,100971.41
2018-10-05T11:02:43.522Z,100972.77
2018-10-05T11:05:11.239Z,100973.02
2018-10-05T11:07:39.206Z,100967.41
2018-10-05T11:10:07.114Z,100962.59
2018-10-05T11:12:34.942Z,100967.06
2018-10-05T11:15:02.749Z,100964.43
2018-10-05T11:17:30.658Z,100957.25
2018-10-05T11:19:58.581Z,100964.32
2018-10-05T11:22:26.360Z,100953.99
2018-10-05T11:24:54.076Z,100953.42
2018-10-05T11:27:21.791Z,100952.12
2018-10-05T11:29:49.585Z,100940.91
2018-10-05T11:32:17.322Z,100941.84
2018-10-05T11:34:45.045Z,100943.81
2018-10-05T11:37:12.783Z,100935.42
2018-10-05T11:39:40.499Z,100931.77
2018-10-05T11:42:08.206Z,100924.67
2018-10-05T11:44:35.909Z,100930.44
2018-10-05T11:47:03.684Z,100927.50
2018-10-05T11:49:31.430Z,100923.67
2018-10-05T11:51:59.294Z,100919.36
2018-10-05T11:54:27.095Z,100919.36
2018-10-05T11:56:54.946Z,100913.34
2018-10-05T11:59:22.719Z,100916.53
2018-10-05T12:01:50.597Z,100916.41
2018-10-05T12:04:18.964Z,100906.72
2018-10-05T12:06:46.778Z,100900.38
2018-10-05T12:09:15.435Z,100903.25
2018-10-05T12:11:43.249Z,100906.45
2018-10-05T12:14:10.965Z,100905.00
2018-10-05T12:16:39.650Z,100907.47
2018-10-05T12:19:07.377Z,100906.80
2018-10-05T12:21:35.095Z,100906.66
2018-10-05T12:24:03.642Z,100910.66
2018-10-05T12:26:33.189Z,100903.57
2018-10-05T12:29:00.918Z,100900.97
2018-10-05T12:31:30.802Z,100896.23
2018-10-05T12:33:58.644Z,100901.90
2018-10-05T12:36:26.358Z,100896.84
2018-10-05T12:38:54.079Z,100890.61
2018-10-05T12:41:21.808Z,100893.88
2018-10-05T12:43:50.534Z,100895.15
2018-10-05T12:46:18.286Z,100892.09
2018-10-05T12:48:46.041Z,100890.82
2018-10-05T12:51:13.774Z,100893.90
2018-10-05T12:53:42.078Z,100893.16
2018-10-05T12:56:10.438Z,100888.41
2018-10-05T12:58:38.193Z,100885.81
2018-10-05T13:01:06.655Z,100882.52
2018-10-05T13:03:35.298Z,100881.73
2018-10-05T13:06:03.055Z,100882.26
2018-10-05T13:08:30.762Z,100880.33
2018-10-05T13:10:59.290Z,100882.73
2018-10-05T13:13:27.638Z,100885.82
2018-10-05T13:15:55.939Z,100884.28
2018-10-05T13:18:24.595Z,100877.69
2018-10-05T13:20:52.353Z,100875.05
2018-10-05T13:23:20.061Z,100876.52
2018-10-05T13:25:47.822Z,100872.52
2018-10-05T13:28:15.530Z,100872.88
2018-10-05T13:30:43.277Z,100872.78
2018-10-05T13:33:11.014Z,100874.87
2018-10-05T13:35:38.735Z,100873.39
2018-10-05T13:38:07.299Z,100865.44
2018-10-05T13:40:35.038Z,100861.84
2018-10-05T13:43:02.754Z,100859.63
2018-10-05T13:45:30.503Z,100858.77
2018-10-05T13:47:58.239Z,100855.17
2018-10-05T13:50:25.979Z,100856.23
2018-10-05T13:52:53.757Z,100855.83
2018-10-05T13:55:21.478Z,100857.10
2018-10-05T13:57:49.263Z,100850.55
2018-10-05T14:00:17.537Z,100850.87
2018-10-05T14:02:45.304Z,100859.69
2018-10-05T14:05:13.630Z,100854.76
2018-10-05T14:07:41.351Z,100855.62
2018-10-05T14:10:09.094Z,100847.81
2018-10-05T14:12:36.825Z,100855.47
2018-10-05T14:15:04.665Z,100850.24
2018-10-05T14:17:32.951Z,100854.64
2018-10-05T14:20:00.687Z,100848.79
2018-10-05T14:22:28.418Z,100846.39
2018-10-05T14:24:57.067Z,100852.97
2018-10-05T14:27:24.827Z,100846.98
2018-10-05T14:29:52.556Z,100840.63
2018-10-05T14:32:20.417Z,100835.95
2018-10-05T14:34:48.824Z,100831.88
2018-10-05T14:37:16.543Z,100834.40
2018-10-05T14:39:44.255Z,100835.82
2018-10-05T14:42:11.991Z,100839.14
2018-10-05T14:44:39.818Z,100830.55
2018-10-05T14:47:07.528Z,100829.36
2018-10-05T14:49:35.396Z,100826.54
2018-10-05T14:52:03.126Z,100828.08
2018-10-05T14:54:30.951Z,100829.41
2018-10-05T14:56:58.701Z,100829.41
2018-10-05T14:59:26.385Z,100832.05
2018-10-05T15:01:54.119Z,100826.66
2018-10-05T15:04:21.863Z,100832.88
2018-10-05T15:06:49.658Z,100831.13
2018-10-05T15:09:17.379Z,100831.55
2018-10-05T15:11:45.078Z,100833.04
2018-10-05T15:14:12.778Z,100834.00
2018-10-05T15:16:40.510Z,100829.52
2018-10-05T15:19:08.210Z,100829.91
2018-10-05T15:21:35.948Z,100835.12
2018-10-05T15:24:03.683Z,100833.17
2018-10-05T15:26:31.386Z,100828.88
2018-10-05T15:28:59.094Z,100832.45
2018-10-05T15:31:26.842Z,100827.85
2018-10-05T15:33:54.538Z,100829.19
2018-10-05T15:36:22.271Z,100831.30
2018-10-05T15:38:50.021Z,100833.43
2018-10-05T15:41:17.698Z,100824.00
2018-10-05T15:43:45.406Z,100823.37
2018-10-05T15:46:23.010Z,100825.56
2018-10-05T15:48:50.746Z,100825.77
2018-10-05T15:51:18.472Z,100825.30
2018-10-05T15:53:46.176Z,100837.37
2018-10-05T15:56:13.888Z,100839.33
2018-10-05T15:58:41.591Z,100837.03
2018-10-05T16:01:09.341Z,100829.47
2018-10-05T16:03:37.054Z,100836.05
2018-10-05T16:06:04.801Z,100829.20
2018-10-05T16:08:32.489Z,100829.22
2018-10-05T16:11:00.309Z,100832.45
2018-10-05T16:13:28.006Z,100832.48
2018-10-05T16:15:55.725Z,100828.67
2018-10-05T16:18:23.525Z,100838.24
2018-10-05T16:20:51.194Z,100838.15
2018-10-05T16:23:18.890Z,100837.03
2018-10-05T16:25:46.610Z,100846.94
2018-10-05T16:28:14.343Z,100834.09
2018-10-05T16:30:42.070Z,100833.81
2018-10-05T16:33:09.762Z,100839.60
2018-10-05T16:35:37.461Z,100838.84
2018-10-05T16:38:05.324Z,100839.95
2018-10-05T16:40:33.025Z,100831.22
2018-10-05T16:43:00.755Z,100839.30
2018-10-05T16:45:28.446Z,100847.86
2018-10-05T16:47:56.170Z,100845.81
2018-10-05T16:50:24.506Z,100843.92
2018-10-05T16:52:52.734Z,100841.43
2018-10-05T16:55:20.434Z,100840.66
2018-10-05T16:57:48.149Z,100840.78
2018-10-05T17:00:15.864Z,100845.41
2018-10-05T17:02:43.570Z,100850.41
2018-10-05T17:05:11.302Z,100846.45
2018-10-05T17:07:39.011Z,100850.23
2018-10-05T17:10:06.912Z,100847.49
2018-10-05T17:12:34.622Z,100853.87
2018-10-05T17:15:02.347Z,100849.98
2018-10-05T17:17:30.057Z,100856.80
2018-10-05T17:19:57.762Z,100851.39
2018-10-05T17:22:25.481Z,100858.75
2018-10-05T17:24:53.245Z,100859.89
2018-10-05T17:27:21.003Z,100854.99
2018-10-05T17:29:48.701Z,100853.22
2018-10-05T17:32:16.417Z,100856.34
2018-10-05T17:34:44.136Z,100856.49
2018-10-05T17:37:12.922Z,100855.88
2018-10-05T17:39:40.551Z,100862.94
2018-10-05T17:42:08.268Z,100856.96
2018-10-05T17:44:35.967Z,100862.37
2018-10-05T17:47:03.677Z,100862.55
2018-10-05T17:49:33.332Z,100859.82
2018-10-05T17:52:01.113Z,100855.53
2018-10-05T17:54:30.473Z,100863.33
2018-10-05T17:56:59.864Z,100864.91
2018-10-05T17:59:27.590Z,100866.30
2018-10-05T18:01:55.390Z,100865.56
2018-10-05T18:04:23.118Z,100870.63
2018-10-05T18:06:50.862Z,100880.94
2018-10-05T18:09:18.605Z,100875.36
2018-10-05T18:11:46.304Z,100881.38
2018-10-05T18:14:14.125Z,100873.98
2018-10-05T18:16:41.831Z,100886.44
2018-10-05T18:19:09.538Z,100886.78
2018-10-05T18:21:37.282Z,100901.43
2018-10-05T18:24:04.995Z,100915.95
2018-10-05T18:26:32.715Z,100913.22
2018-10-05T18:29:00.537Z,100918.72
2018-10-05T18:31:28.270Z,100926.70
2018-10-05T18:33:56.016Z,100923.59
2018-10-05T18:36:23.757Z,100924.58
2018-10-05T18:38:51.465Z,100920.16
2018-10-05T18:41:19.216Z,100921.25
2018-10-05T18:43:46.973Z,100918.05
2018-10-05T18:46:14.722Z,100921.17
2018-10-05T18:48:42.491Z,100919.59
2018-10-05T18:51:10.290Z,100932.55
2018-10-05T18:53:37.998Z,100932.77
2018-10-05T18:56:16.946Z,100930.59
2018-10-05T18:58:44.666Z,100947.92
2018-10-05T19:01:12.399Z,100940.81
2018-10-05T19:03:40.105Z,100953.55
2018-10-05T19:06:07.829Z,100948.77
2018-10-05T19:08:36.190Z,100954.19
2018-10-05T19:11:03.920Z,100950.09
2018-10-05T19:13:31.666Z,100953.67
2018-10-05T19:15:59.404Z,100957.76
2018-10-05T19:18:27.861Z,100960.22
2018-10-05T19:20:55.659Z,100955.08
2018-10-05T19:23:23.484Z,100952.83
2018-10-05T19:25:51.298Z,100962.11
2018-10-05T19:28:18.986Z,100958.53
2018-10-05T19:30:46.700Z,100951.94
2018-10-05T19:33:14.515Z,100952.27
2018-10-05T19:35:42.227Z,100952.75
2018-10-05T19:38:09.943Z,100957.34
2018-10-05T19:40:37.642Z,100961.63
2018-10-05T19:43:05.383Z,100965.00
2018-10-05T19:45:33.098Z,100966.17
2018-10-05T19:48:00.809Z,100960.59
2018-10-05T19:50:28.543Z,100965.30
2018-10-05T19:52:56.315Z,100970.19
2018-10-05T19:55:24.003Z,100972.08
2018-10-05T19:57:51.718Z,100969.30
2018-10-05T20:00:19.442Z,100969.84
2018-10-05T20:02:47.142Z,100974.42
2018-10-05T20:05:14.855Z,100969.75
2018-10-05T20:07:42.570Z,100963.30
2018-10-05T20:10:10.344Z,100971.64
2018-10-05T20:12:38.042Z,100968.75
2018-10-05T20:15:05.953Z,100967.00
2018-10-05T20:17:33.747Z,100967.59
2018-10-05T20:20:01.456Z,100962.89
2018-10-05T20:22:29.162Z,100962.03
2018-10-05T20:24:56.865Z,100962.45
2018-10-05T20:27:24.573Z,100958.48
2018-10-05T20:29:52.278Z,100955.64
2018-10-05T20:32:19.997Z,100960.33
2018-10-05T20:34:47.698Z,100947.55
2018-10-05T20:37:20.130Z,100953.45
2018-10-05T20:39:48.732Z,100955.37
2018-10-05T20:42:16.459Z,100952.84
2018-10-05T20:44:44.192Z,100949.33
2018-10-05T20:47:11.922Z,100947.84
2018-10-05T20:49:39.742Z,100949.63
2018-10-05T20:52:07.455Z,100956.55
2018-10-05T20:54:35.165Z,100950.30
2018-10-05T20:57:02.866Z,100951.49
2018-10-05T20:59:30.566Z,100944.69
2018-10-05T21:01:58.274Z,100946.09
2018-10-05T21:04:26.090Z,100948.43
2018-10-05T21:06:53.939Z,100948.25
2018-10-05T21:09:21.658Z,100949.44
2018-10-05T21:11:49.425Z,100944.66
2018-10-05T21:14:17.157Z,100947.16
2018-10-05T21:16:44.925Z,100944.59
2018-10-05T21:19:12.659Z,100948.86
2018-10-05T21:21:40.362Z,100950.38
2018-10-05T21:24:08.105Z,100943.72
2018-10-05T21:26:35.825Z,100950.42
2018-10-05T21:29:03.711Z,100945.13
2018-10-05T21:31:31.486Z,100943.72
2018-10-05T21:33:59.185Z,100936.12
2018-10-05T21:36:26.902Z,100938.14
2018-10-05T21:38:54.708Z,100942.97
2018-10-05T21:41:22.426Z,100939.48
2018-10-05T21:43:50.149Z,100942.44
2018-10-05T21:46:17.938Z,100943.80
2018-10-05T21:48:45.694Z,100941.59
2018-10-05T21:51:13.528Z,100939.75
2018-10-05T21:53:41.306Z,100943.11
2018-10-05T21:56:09.031Z,100944.73
2018-10-05T21:58:36.793Z,100942.09
2018-10-05T22:01:04.551Z,100941.17
2018-10-05T22:03:32.406Z,100941.50
2018-10-05T22:06:00.204Z,100938.41
2018-10-05T22:08:28.009Z,100935.94
2018-10-05T22:10:55.764Z,100938.33
2018-10-05T22:13:23.479Z,100943.06
2018-10-05T22:15:51.191Z,100940.86
2018-10-05T22:18:18.903Z,100937.29
2018-10-05T22:20:46.640Z,100939.21
2018-10-05T22:23:14.344Z,100940.60
2018-10-05T22:25:42.046Z,100939.27
2018-10-05T22:28:09.742Z,100935.12
2018-10-05T22:30:37.598Z,100932.17
2018-10-05T22:33:05.463Z,100934.28
2018-10-05T22:35:34.064Z,100938.73
2018-10-05T22:38:01.922Z,100934.20
2018-10-05T22:40:30.161Z,100935.92
2018-10-05T22:42:58.027Z,100933.42
2018-10-05T22:45:25.878Z,100938.80
2018-10-05T22:47:53.743Z,100936.16
2018-10-05T22:50:21.665Z,100943.47
2018-10-05T22:52:49.510Z,100937.66
2018-10-05T22:55:17.378Z,100942.78
2018-10-05T22:57:45.238Z,100942.95
2018-10-05T23:00:13.132Z,100942.25
2018-10-05T23:02:41.009Z,100944.20
2018-10-05T23:05:08.895Z,100947.53
2018-10-05T23:07:36.767Z,100954.66
2018-10-05T23:10:05.002Z,100948.06
2018-10-05T23:12:32.878Z,100951.25
2018-10-05T23:15:02.247Z,100950.72
2018-10-05T23:17:30.131Z,100951.32
2018-10-05T23:19:58.000Z,100954.78
2018-10-05T23:22:25.959Z,100950.45
2018-10-05T23:24:53.818Z,100952.15
2018-10-05T23:27:21.683Z,100949.93
2018-10-05T23:29:49.579Z,100949.22
2018-10-05T23:32:17.471Z,100950.86
2018-10-05T23:34:45.350Z,100951.80
2018-10-05T23:37:13.223Z,100943.23
2018-10-05T23:39:42.087Z,100943.50
2018-10-05T23:42:10.044Z,100940.14
2018-10-05T23:44:37.906Z,100944.31
2018-10-05T23:47:06.027Z,100936.72
2018-10-05T23:49:33.962Z,100937.16
2018-10-05T23:52:12.838Z,100933.75
2018-10-05T23:54:40.689Z,100928.41
2018-10-05T23:57:08.542Z,100935.10
2018-10-05T23:59:36.402Z,100937.06
